createdAt,value
2023-04-16T00:02:45.563Z,16.75
2023-04-16T00:07:53.027Z,19.75
2023-04-16T00:12:58.028Z,19.75
2023-04-16T00:18:02.756Z,14.75
2023-04-16T00:23:07.743Z,19.50
2023-04-16T00:28:12.641Z,23.25
2023-04-16T00:33:18.506Z,17.50
2023-04-16T00:38:23.622Z,18.25
2023-04-16T00:43:29.249Z,29.50
2023-04-16T00:48:34.249Z,25.75
2023-04-16T00:53:40.463Z,19.25
2023-04-16T00:58:45.338Z,20.25
2023-04-16T01:03:51.408Z,15.75
2023-04-16T01:08:56.422Z,28.50
2023-04-16T01:14:01.279Z,23.50
2023-04-16T01:19:06.161Z,24.50
2023-04-16T01:24:10.852Z,22.25
2023-04-16T01:29:16.662Z,26.50
2023-04-16T01:34:21.830Z,24.00
2023-04-16T01:39:26.772Z,23.00
2023-04-16T01:44:33.794Z,23.75
2023-04-16T01:49:38.836Z,24.25
2023-04-16T01:54:43.961Z,27.25
2023-04-16T01:59:49.018Z,19.00
2023-04-16T02:04:54.402Z,24.00
2023-04-16T02:10:00.304Z,27.50
2023-04-16T02:15:05.163Z,18.50
2023-04-16T02:20:11.647Z,26.00
2023-04-16T02:25:27.411Z,21.75
2023-04-16T02:30:37.232Z,26.50
2023-04-16T02:35:42.945Z,23.25
2023-04-16T02:40:47.930Z,27.50
2023-04-16T02:45:54.107Z,28.50
2023-04-16T02:51:00.048Z,24.25
2023-04-16T02:56:05.036Z,25.00
2023-04-16T03:01:09.994Z,26.25
2023-04-16T03:06:15.507Z,17.75
2023-04-16T03:11:21.820Z,21.75
2023-04-16T03:16:26.953Z,22.00
2023-04-16T03:21:32.639Z,24.00
2023-04-16T03:26:37.596Z,19.00
2023-04-16T03:31:43.617Z,19.00
2023-04-16T03:36:48.599Z,22.75
2023-04-16T03:41:54.049Z,26.75
2023-04-16T03:46:59.255Z,21.50
2023-04-16T03:52:04.220Z,15.00
2023-04-16T03:57:09.265Z,15.50
2023-04-16T04:02:14.858Z,17.25
2023-04-16T04:07:19.933Z,18.25
2023-04-16T04:12:25.525Z,16.50
2023-04-16T04:17:30.961Z,16.75
2023-04-16T04:22:36.234Z,20.25
2023-04-16T04:27:41.491Z,14.75
2023-04-16T04:32:47.661Z,16.50
2023-04-16T04:37:54.139Z,15.75
2023-04-16T04:42:59.428Z,15.50
2023-04-16T04:48:04.327Z,16.75
2023-04-16T04:53:11.657Z,17.50
2023-04-16T04:58:16.713Z,15.50
2023-04-16T05:03:22.996Z,20.25
2023-04-16T05:08:28.347Z,15.25
2023-04-16T05:13:33.368Z,20.50
2023-04-16T05:18:38.349Z,24.25
2023-04-16T05:23:43.236Z,16.00
2023-04-16T05:28:48.535Z,19.00
2023-04-16T05:33:53.688Z,21.25
2023-04-16T05:38:58.712Z,16.00
2023-04-16T05:44:04.220Z,20.75
2023-04-16T05:49:09.414Z,17.50
2023-04-16T05:54:14.892Z,17.25
2023-04-16T05:59:20.163Z,22.00
2023-04-16T06:04:25.232Z,18.00
2023-04-16T06:09:30.241Z,16.00
2023-04-16T06:14:35.123Z,14.50
2023-04-16T06:19:40.585Z,19.50
2023-04-16T06:24:46.623Z,15.25
2023-04-16T06:29:51.934Z,15.00
2023-04-16T06:34:57.568Z,21.75
2023-04-16T06:40:02.552Z,17.00
2023-04-16T06:45:08.097Z,18.00
2023-04-16T06:50:13.313Z,19.00
2023-04-16T06:55:18.218Z,24.25
2023-04-16T07:00:23.048Z,26.00
2023-04-16T07:05:28.561Z,21.00
2023-04-16T07:10:33.215Z,24.50
2023-04-16T07:15:38.828Z,34.50
2023-04-16T07:20:43.924Z,26.50
2023-04-16T07:25:48.621Z,22.50
2023-04-16T07:30:53.808Z,26.75
2023-04-16T07:35:58.977Z,24.00
2023-04-16T07:41:04.333Z,18.75
2023-04-16T07:46:09.263Z,23.50
2023-04-16T07:51:14.212Z,29.00
2023-04-16T07:56:19.351Z,23.75
2023-04-16T08:01:24.450Z,33.75
2023-04-16T08:06:29.319Z,18.00
2023-04-16T08:11:34.616Z,27.00
2023-04-16T08:16:40.302Z,27.75
2023-04-16T08:21:45.732Z,26.00
2023-04-16T08:26:50.591Z,25.25
2023-04-16T08:31:56.000Z,28.50
2023-04-16T08:37:02.436Z,24.50
2023-04-16T08:42:08.214Z,22.25
2023-04-16T08:47:14.578Z,30.75
2023-04-16T08:52:24.366Z,25.00
2023-04-16T08:57:38.685Z,29.75
2023-04-16T09:02:44.482Z,28.25
2023-04-16T09:07:50.252Z,27.25
2023-04-16T09:12:57.304Z,21.00
2023-04-16T09:18:02.015Z,27.75
2023-04-16T09:23:06.750Z,24.75
2023-04-16T09:28:12.406Z,27.25
2023-04-16T09:33:23.659Z,25.00
2023-04-16T09:38:30.430Z,26.00
2023-04-16T09:43:34.641Z,30.00
2023-04-16T09:48:38.909Z,28.50
2023-04-16T09:53:44.688Z,30.50
2023-04-16T09:58:49.550Z,31.75
2023-04-16T10:03:56.375Z,22.75
2023-04-16T10:09:00.950Z,27.50
2023-04-16T10:14:05.659Z,29.00
2023-04-16T10:19:10.372Z,23.00
2023-04-16T10:24:18.046Z,32.75
2023-04-16T10:29:23.203Z,38.00
2023-04-16T10:34:28.280Z,27.75
2023-04-16T10:39:34.458Z,30.75
2023-04-16T10:44:38.998Z,30.75
2023-04-16T10:49:44.964Z,32.75
2023-04-16T10:54:52.461Z,29.25
2023-04-16T10:59:56.912Z,36.00
2023-04-16T11:05:03.815Z,27.50
2023-04-16T11:10:09.223Z,22.75
2023-04-16T11:15:20.836Z,38.00
2023-04-16T11:20:26.788Z,33.50
2023-04-16T11:25:37.290Z,27.25
2023-04-16T11:30:43.079Z,30.25
2023-04-16T11:35:47.678Z,34.00
2023-04-16T11:40:55.514Z,33.00
2023-04-16T11:46:16.699Z,27.00
2023-04-16T11:51:30.341Z,24.75
2023-04-16T11:56:36.264Z,35.25
2023-04-16T12:01:41.792Z,37.25
2023-04-16T12:07:04.636Z,32.25
2023-04-16T12:12:28.866Z,33.50
2023-04-16T12:17:38.185Z,39.75
2023-04-16T12:22:47.729Z,43.50
2023-04-16T12:27:58.298Z,30.50
2023-04-16T12:33:17.080Z,28.50
2023-04-16T12:38:24.553Z,40.50
2023-04-16T12:43:30.600Z,32.25
2023-04-16T12:48:36.225Z,43.00
2023-04-16T12:53:41.673Z,27.75
2023-04-16T12:58:47.150Z,34.00
2023-04-16T13:03:53.225Z,34.25
2023-04-16T13:09:00.274Z,27.75
2023-04-16T13:14:06.989Z,41.25
2023-04-16T13:19:12.552Z,37.25
2023-04-16T13:24:18.201Z,33.25
2023-04-16T13:29:23.919Z,29.25
2023-04-16T13:34:29.380Z,30.25
2023-04-16T13:39:36.039Z,25.50
2023-04-16T13:44:41.561Z,25.75
2023-04-16T13:49:47.339Z,23.75
2023-04-16T13:54:53.017Z,30.25
2023-04-16T13:59:58.391Z,31.00
2023-04-16T14:05:03.975Z,29.50
2023-04-16T14:10:09.810Z,23.25
2023-04-16T14:15:16.499Z,33.00
2023-04-16T14:20:22.109Z,27.50
2023-04-16T14:25:28.107Z,29.00
2023-04-16T14:30:33.648Z,27.75
2023-04-16T14:35:39.098Z,30.75
2023-04-16T14:40:47.618Z,23.00
2023-04-16T14:45:54.299Z,25.00
2023-04-16T14:50:59.883Z,24.25
2023-04-16T14:56:05.566Z,24.25
2023-04-16T15:01:12.469Z,34.00
2023-04-16T15:06:19.169Z,24.25
2023-04-16T15:11:25.195Z,30.00
2023-04-16T15:16:30.743Z,26.25
2023-04-16T15:21:36.326Z,28.75
2023-04-16T15:26:42.178Z,32.25
2023-04-16T15:31:47.508Z,26.00
2023-04-16T15:36:53.403Z,28.50
2023-04-16T15:42:01.877Z,28.25
2023-04-16T15:47:10.281Z,25.50
2023-04-16T15:52:15.553Z,24.00
2023-04-16T15:57:21.070Z,25.00
2023-04-16T16:02:26.705Z,27.00
2023-04-16T16:07:32.964Z,23.50
2023-04-16T16:12:39.263Z,30.00
2023-04-16T16:17:44.762Z,22.75
2023-04-16T16:22:50.917Z,22.50
2023-04-16T16:27:56.477Z,25.00
2023-04-16T16:33:02.235Z,26.00
2023-04-16T16:38:07.908Z,30.00
2023-04-16T16:43:13.215Z,23.25
2023-04-16T16:48:18.665Z,29.50
2023-04-16T16:53:24.035Z,28.50
2023-04-16T16:58:29.408Z,26.75
2023-04-16T17:03:35.786Z,29.25
2023-04-16T17:08:41.413Z,28.00
2023-04-16T17:13:46.839Z,24.75
2023-04-16T17:18:52.386Z,22.75
2023-04-16T17:23:59.752Z,22.25
2023-04-16T17:29:05.965Z,21.75
2023-04-16T17:34:11.462Z,27.00
2023-04-16T17:39:16.708Z,22.75
2023-04-16T17:44:22.507Z,31.25
2023-04-16T17:49:27.657Z,25.25
2023-04-16T17:54:32.971Z,26.75
2023-04-16T17:59:37.767Z,28.25
2023-04-16T18:04:42.856Z,23.75
2023-04-16T18:09:48.043Z,24.50
2023-04-16T18:14:52.741Z,26.00
2023-04-16T18:19:58.830Z,28.25
2023-04-16T18:25:04.449Z,21.75
2023-04-16T18:30:18.945Z,22.50
2023-04-16T18:35:27.925Z,29.00
2023-04-16T18:40:36.293Z,24.50
2023-04-16T18:45:41.392Z,21.75
2023-04-16T18:50:46.322Z,23.50
2023-04-16T18:55:55.139Z,28.00
2023-04-16T19:00:59.815Z,20.00
2023-04-16T19:06:05.941Z,28.25
2023-04-16T19:11:10.830Z,23.00
2023-04-16T19:16:15.813Z,20.75
2023-04-16T19:21:20.832Z,22.75
2023-04-16T19:26:25.845Z,25.50
2023-04-16T19:31:31.138Z,20.75
2023-04-16T19:36:36.087Z,20.25
2023-04-16T19:41:40.949Z,21.00
2023-04-16T19:46:45.784Z,24.00
2023-04-16T19:51:50.384Z,22.00
2023-04-16T19:56:55.221Z,22.50
2023-04-16T20:02:00.493Z,25.75
2023-04-16T20:07:05.541Z,23.75
2023-04-16T20:12:10.201Z,19.50
2023-04-16T20:17:20.972Z,25.75
2023-04-16T20:22:26.526Z,21.50
2023-04-16T20:27:35.253Z,25.00
2023-04-16T20:32:40.350Z,22.00
2023-04-16T20:37:45.496Z,25.00
2023-04-16T20:42:52.266Z,24.50
2023-04-16T20:47:57.169Z,32.50
2023-04-16T20:53:02.215Z,22.00
2023-04-16T20:58:07.174Z,23.00
2023-04-16T21:03:12.050Z,23.75
2023-04-16T21:08:16.902Z,21.75
2023-04-16T21:13:22.461Z,24.25
2023-04-16T21:18:27.241Z,26.50
2023-04-16T21:23:32.255Z,25.75
2023-04-16T21:28:37.279Z,25.00
2023-04-16T21:33:42.076Z,26.00
2023-04-16T21:38:46.963Z,25.00
2023-04-16T21:43:51.901Z,23.25
2023-04-16T21:48:56.976Z,24.50
2023-04-16T21:54:01.874Z,24.75
2023-04-16T21:59:07.083Z,24.50
2023-04-16T22:04:13.478Z,30.00
2023-04-16T22:09:18.644Z,21.00
2023-04-16T22:14:23.766Z,30.25
2023-04-16T22:19:28.772Z,42.50
2023-04-16T22:24:33.701Z,40.75
2023-04-16T22:29:38.773Z,40.00
2023-04-16T22:34:43.731Z,48.50
2023-04-16T22:39:48.521Z,40.75
2023-04-16T22:44:53.382Z,34.00
2023-04-16T22:49:58.238Z,32.75
2023-04-16T22:55:03.424Z,34.00
2023-04-16T23:00:11.449Z,38.75
2023-04-16T23:05:16.311Z,47.50
2023-04-16T23:10:21.223Z,34.00
2023-04-16T23:15:26.279Z,40.75
2023-04-16T23:20:31.373Z,38.25
2023-04-16T23:25:36.164Z,39.75
2023-04-16T23:30:41.312Z,37.00
2023-04-16T23:35:46.050Z,39.25
2023-04-16T23:40:51.041Z,39.25
2023-04-16T23:45:55.991Z,42.50
2023-04-16T23:51:01.074Z,47.25
2023-04-16T23:56:06.050Z,39.25
